sensor_id;sensor_type;location;lat;lon;timestamp;P1;durP1;ratioP1;P2;durP2;ratioP2
83184;SDS011;73080;48.768;11.528;2023-12-07T00:01:37;25.93;;;12.40;;
83184;SDS011;73080;48.768;11.528;2023-12-07T00:04:02;23.10;;;10.90;;
83184;SDS011;73080;48.768;11.528;2023-12-07T00:06:28;20.77;;;10.35;;
83184;SDS011;73080;48.768;11.528;2023-12-07T00:08:54;25.85;;;12.73;;
83184;SDS011;73080;48.768;11.528;2023-12-07T00:11:19;23.02;;;13.10;;
83184;SDS011;73080;48.768;11.528;2023-12-07T00:13:47;24.95;;;11.93;;
83184;SDS011;73080;48.768;11.528;2023-12-07T00:16:15;21.30;;;10.95;;
83184;SDS011;73080;48.768;11.528;2023-12-07T00:18:40;23.35;;;12.23;;
83184;SDS011;73080;48.768;11.528;2023-12-07T00:21:07;25.98;;;10.75;;
83184;SDS011;73080;48.768;11.528;2023-12-07T00:23:33;23.00;;;10.23;;
83184;SDS011;73080;48.768;11.528;2023-12-07T00:25:58;23.27;;;10.82;;
83184;SDS011;73080;48.768;11.528;2023-12-07T00:28:26;21.77;;;10.27;;
83184;SDS011;73080;48.768;11.528;2023-12-07T00:30:51;27.48;;;12.43;;
83184;SDS011;73080;48.768;11.528;2023-12-07T00:33:17;22.90;;;10.83;;
83184;SDS011;73080;48.768;11.528;2023-12-07T00:35:42;25.43;;;11.40;;
83184;SDS011;73080;48.768;11.528;2023-12-07T00:38:10;24.02;;;12.63;;
83184;SDS011;73080;48.768;11.528;2023-12-07T00:40:39;22.58;;;11.57;;
83184;SDS011;73080;48.768;11.528;2023-12-07T00:45:30;23.90;;;12.03;;
83184;SDS011;73080;48.768;11.528;2023-12-07T00:47:55;24.40;;;11.38;;
83184;SDS011;73080;48.768;11.528;2023-12-07T00:50:20;19.58;;;10.10;;
83184;SDS011;73080;48.768;11.528;2023-12-07T00:52:46;22.00;;;10.48;;
83184;SDS011;73080;48.768;11.528;2023-12-07T00:55:11;21.48;;;10.95;;
83184;SDS011;73080;48.768;11.528;2023-12-07T00:57:37;23.27;;;10.75;;
83184;SDS011;73080;48.768;11.528;2023-12-07T01:00:02;22.85;;;10.98;;
83184;SDS011;73080;48.768;11.528;2023-12-07T01:02:28;23.70;;;11.27;;
83184;SDS011;73080;48.768;11.528;2023-12-07T01:04:56;24.35;;;11.55;;
83184;SDS011;73080;48.768;11.528;2023-12-07T01:07:22;25.23;;;11.30;;
83184;SDS011;73080;48.768;11.528;2023-12-07T01:09:47;21.00;;;10.40;;
83184;SDS011;73080;48.768;11.528;2023-12-07T01:12:12;23.80;;;10.88;;
83184;SDS011;73080;48.768;11.528;2023-12-07T01:14:38;20.20;;;9.37;;
83184;SDS011;73080;48.768;11.528;2023-12-07T01:17:03;22.73;;;10.85;;
83184;SDS011;73080;48.768;11.528;2023-12-07T01:19:32;24.23;;;11.07;;
83184;SDS011;73080;48.768;11.528;2023-12-07T01:24:22;25.38;;;11.63;;
83184;SDS011;73080;48.768;11.528;2023-12-07T01:26:48;22.83;;;10.33;;
83184;SDS011;73080;48.768;11.528;2023-12-07T01:29:16;22.13;;;10.53;;
83184;SDS011;73080;48.768;11.528;2023-12-07T01:31:41;23.92;;;12.80;;
83184;SDS011;73080;48.768;11.528;2023-12-07T01:34:06;24.30;;;10.67;;
83184;SDS011;73080;48.768;11.528;2023-12-07T01:36:32;25.23;;;10.80;;
83184;SDS011;73080;48.768;11.528;2023-12-07T01:38:57;20.57;;;9.93;;
83184;SDS011;73080;48.768;11.528;2023-12-07T01:41:23;21.33;;;10.52;;
83184;SDS011;73080;48.768;11.528;2023-12-07T01:43:51;24.60;;;11.97;;
83184;SDS011;73080;48.768;11.528;2023-12-07T01:46:16;25.20;;;11.52;;
83184;SDS011;73080;48.768;11.528;2023-12-07T01:48:45;22.20;;;10.77;;
83184;SDS011;73080;48.768;11.528;2023-12-07T01:51:14;23.02;;;11.45;;
83184;SDS011;73080;48.768;11.528;2023-12-07T01:53:39;22.60;;;10.55;;
83184;SDS011;73080;48.768;11.528;2023-12-07T01:56:08;24.30;;;11.30;;
83184;SDS011;73080;48.768;11.528;2023-12-07T01:58:34;24.45;;;10.50;;
83184;SDS011;73080;48.768;11.528;2023-12-07T02:01:00;26.48;;;13.35;;
83184;SDS011;73080;48.768;11.528;2023-12-07T02:03:26;22.17;;;11.52;;
83184;SDS011;73080;48.768;11.528;2023-12-07T02:05:52;24.80;;;12.80;;
83184;SDS011;73080;48.768;11.528;2023-12-07T02:08:19;26.33;;;12.73;;
83184;SDS011;73080;48.768;11.528;2023-12-07T02:10:45;27.73;;;13.50;;
83184;SDS011;73080;48.768;11.528;2023-12-07T02:13:10;28.37;;;13.53;;
83184;SDS011;73080;48.768;11.528;2023-12-07T02:15:36;26.25;;;12.20;;
83184;SDS011;73080;48.768;11.528;2023-12-07T02:18:03;25.25;;;11.95;;
83184;SDS011;73080;48.768;11.528;2023-12-07T02:20:55;30.58;;;13.45;;
83184;SDS011;73080;48.768;11.528;2023-12-07T02:23:29;28.08;;;12.77;;
83184;SDS011;73080;48.768;11.528;2023-12-07T02:28:27;26.77;;;12.90;;
83184;SDS011;73080;48.768;11.528;2023-12-07T02:30:52;25.97;;;12.17;;
83184;SDS011;73080;48.768;11.528;2023-12-07T02:33:17;22.48;;;11.65;;
83184;SDS011;73080;48.768;11.528;2023-12-07T02:35:43;22.90;;;11.05;;
83184;SDS011;73080;48.768;11.528;2023-12-07T02:38:08;26.92;;;12.88;;
83184;SDS011;73080;48.768;11.528;2023-12-07T02:40:34;24.08;;;11.00;;
83184;SDS011;73080;48.768;11.528;2023-12-07T02:43:01;23.05;;;11.45;;
83184;SDS011;73080;48.768;11.528;2023-12-07T02:45:26;25.35;;;12.05;;
83184;SDS011;73080;48.768;11.528;2023-12-07T02:47:52;26.75;;;12.43;;
83184;SDS011;73080;48.768;11.528;2023-12-07T02:50:21;24.20;;;13.18;;
83184;SDS011;73080;48.768;11.528;2023-12-07T02:52:46;24.00;;;12.75;;
83184;SDS011;73080;48.768;11.528;2023-12-07T02:55:12;24.40;;;11.07;;
83184;SDS011;73080;48.768;11.528;2023-12-07T02:57:37;20.48;;;10.73;;
83184;SDS011;73080;48.768;11.528;2023-12-07T03:00:03;23.23;;;11.60;;
83184;SDS011;73080;48.768;11.528;2023-12-07T03:02:29;25.50;;;11.65;;
83184;SDS011;73080;48.768;11.528;2023-12-07T03:04:55;21.55;;;11.98;;
83184;SDS011;73080;48.768;11.528;2023-12-07T03:07:20;28.80;;;11.73;;
83184;SDS011;73080;48.768;11.528;2023-12-07T03:09:45;21.17;;;11.00;;
83184;SDS011;73080;48.768;11.528;2023-12-07T03:12:11;25.58;;;11.60;;
83184;SDS011;73080;48.768;11.528;2023-12-07T03:14:36;21.55;;;9.38;;
83184;SDS011;73080;48.768;11.528;2023-12-07T03:17:02;28.45;;;13.05;;
83184;SDS011;73080;48.768;11.528;2023-12-07T03:19:27;22.13;;;10.52;;
83184;SDS011;73080;48.768;11.528;2023-12-07T03:21:59;21.88;;;11.68;;
83184;SDS011;73080;48.768;11.528;2023-12-07T03:24:24;22.30;;;10.27;;
83184;SDS011;73080;48.768;11.528;2023-12-07T03:26:50;21.98;;;10.93;;
83184;SDS011;73080;48.768;11.528;2023-12-07T03:29:15;24.30;;;11.93;;
83184;SDS011;73080;48.768;11.528;2023-12-07T03:31:41;23.33;;;11.77;;
83184;SDS011;73080;48.768;11.528;2023-12-07T03:34:09;25.42;;;11.85;;
83184;SDS011;73080;48.768;11.528;2023-12-07T03:36:34;22.98;;;11.75;;
83184;SDS011;73080;48.768;11.528;2023-12-07T03:39:00;30.33;;;13.47;;
83184;SDS011;73080;48.768;11.528;2023-12-07T03:41:28;28.50;;;13.23;;
83184;SDS011;73080;48.768;11.528;2023-12-07T03:43:53;27.17;;;12.05;;
83184;SDS011;73080;48.768;11.528;2023-12-07T03:46:19;23.88;;;11.25;;
83184;SDS011;73080;48.768;11.528;2023-12-07T03:48:44;24.45;;;10.95;;
83184;SDS011;73080;48.768;11.528;2023-12-07T03:51:12;25.45;;;12.05;;
83184;SDS011;73080;48.768;11.528;2023-12-07T03:53:38;27.83;;;11.93;;
83184;SDS011;73080;48.768;11.528;2023-12-07T03:56:04;26.52;;;12.07;;
83184;SDS011;73080;48.768;11.528;2023-12-07T03:58:29;24.98;;;11.55;;
83184;SDS011;73080;48.768;11.528;2023-12-07T04:00:55;23.83;;;10.75;;
83184;SDS011;73080;48.768;11.528;2023-12-07T04:03:20;25.33;;;12.02;;
83184;SDS011;73080;48.768;11.528;2023-12-07T04:05:45;30.70;;;12.70;;
83184;SDS011;73080;48.768;11.528;2023-12-07T04:08:11;27.43;;;11.87;;
83184;SDS011;73080;48.768;11.528;2023-12-07T04:10:36;24.13;;;12.18;;
83184;SDS011;73080;48.768;11.528;2023-12-07T04:13:02;25.88;;;12.15;;
83184;SDS011;73080;48.768;11.528;2023-12-07T04:15:27;27.10;;;13.68;;
83184;SDS011;73080;48.768;11.528;2023-12-07T04:17:52;24.50;;;13.20;;
83184;SDS011;73080;48.768;11.528;2023-12-07T04:20:21;29.95;;;14.70;;
83184;SDS011;73080;48.768;11.528;2023-12-07T04:22:46;27.90;;;14.77;;
83184;SDS011;73080;48.768;11.528;2023-12-07T04:25:11;30.65;;;14.30;;
83184;SDS011;73080;48.768;11.528;2023-12-07T04:27:37;35.20;;;15.93;;
83184;SDS011;73080;48.768;11.528;2023-12-07T04:30:03;26.92;;;12.60;;
83184;SDS011;73080;48.768;11.528;2023-12-07T04:32:28;32.65;;;14.85;;
83184;SDS011;73080;48.768;11.528;2023-12-07T04:34:57;30.92;;;14.27;;
83184;SDS011;73080;48.768;11.528;2023-12-07T04:37:22;29.38;;;14.65;;
83184;SDS011;73080;48.768;11.528;2023-12-07T04:39:48;31.65;;;14.80;;
83184;SDS011;73080;48.768;11.528;2023-12-07T04:42:13;32.45;;;15.02;;
83184;SDS011;73080;48.768;11.528;2023-12-07T04:44:38;31.45;;;14.55;;
83184;SDS011;73080;48.768;11.528;2023-12-07T04:47:04;29.55;;;14.95;;
83184;SDS011;73080;48.768;11.528;2023-12-07T04:49:29;29.83;;;14.20;;
83184;SDS011;73080;48.768;11.528;2023-12-07T04:51:58;31.58;;;14.48;;
83184;SDS011;73080;48.768;11.528;2023-12-07T04:56:48;33.33;;;13.97;;
83184;SDS011;73080;48.768;11.528;2023-12-07T04:59:14;28.30;;;13.85;;
83184;SDS011;73080;48.768;11.528;2023-12-07T05:01:39;33.10;;;15.63;;
83184;SDS011;73080;48.768;11.528;2023-12-07T05:04:05;29.13;;;14.98;;
83184;SDS011;73080;48.768;11.528;2023-12-07T05:06:31;32.25;;;15.20;;
83184;SDS011;73080;48.768;11.528;2023-12-07T05:08:56;33.25;;;14.70;;
83184;SDS011;73080;48.768;11.528;2023-12-07T05:11:22;31.73;;;16.00;;
83184;SDS011;73080;48.768;11.528;2023-12-07T05:13:48;31.20;;;15.45;;
83184;SDS011;73080;48.768;11.528;2023-12-07T05:16:13;30.38;;;14.15;;
83184;SDS011;73080;48.768;11.528;2023-12-07T05:18:39;34.28;;;16.27;;
83184;SDS011;73080;48.768;11.528;2023-12-07T05:21:05;29.60;;;14.60;;
83184;SDS011;73080;48.768;11.528;2023-12-07T05:23:31;30.65;;;14.75;;
83184;SDS011;73080;48.768;11.528;2023-12-07T05:25:56;32.60;;;16.60;;
83184;SDS011;73080;48.768;11.528;2023-12-07T05:28:21;39.92;;;17.63;;
83184;SDS011;73080;48.768;11.528;2023-12-07T05:30:47;34.22;;;15.32;;
83184;SDS011;73080;48.768;11.528;2023-12-07T05:33:12;30.90;;;14.38;;
83184;SDS011;73080;48.768;11.528;2023-12-07T05:35:38;32.38;;;14.07;;
83184;SDS011;73080;48.768;11.528;2023-12-07T05:38:03;28.33;;;14.23;;
83184;SDS011;73080;48.768;11.528;2023-12-07T05:40:29;31.45;;;15.00;;
83184;SDS011;73080;48.768;11.528;2023-12-07T05:42:54;31.17;;;14.52;;
83184;SDS011;73080;48.768;11.528;2023-12-07T05:45:19;31.75;;;15.70;;
83184;SDS011;73080;48.768;11.528;2023-12-07T05:47:45;31.17;;;15.18;;
83184;SDS011;73080;48.768;11.528;2023-12-07T05:50:10;29.47;;;13.70;;
83184;SDS011;73080;48.768;11.528;2023-12-07T05:52:38;35.60;;;17.13;;
83184;SDS011;73080;48.768;11.528;2023-12-07T05:55:07;32.33;;;15.70;;
83184;SDS011;73080;48.768;11.528;2023-12-07T05:57:32;34.00;;;16.23;;
83184;SDS011;73080;48.768;11.528;2023-12-07T05:59:58;32.85;;;15.48;;
83184;SDS011;73080;48.768;11.528;2023-12-07T06:02:23;30.05;;;15.80;;
83184;SDS011;73080;48.768;11.528;2023-12-07T06:04:50;29.48;;;13.85;;
83184;SDS011;73080;48.768;11.528;2023-12-07T06:07:15;34.53;;;16.50;;
83184;SDS011;73080;48.768;11.528;2023-12-07T06:09:41;29.55;;;14.20;;
83184;SDS011;73080;48.768;11.528;2023-12-07T06:12:06;31.85;;;17.30;;
83184;SDS011;73080;48.768;11.528;2023-12-07T06:14:31;30.13;;;14.97;;
83184;SDS011;73080;48.768;11.528;2023-12-07T06:16:57;32.50;;;15.20;;
83184;SDS011;73080;48.768;11.528;2023-12-07T06:19:25;31.10;;;14.52;;
83184;SDS011;73080;48.768;11.528;2023-12-07T06:24:16;31.20;;;15.40;;
83184;SDS011;73080;48.768;11.528;2023-12-07T06:26:41;35.35;;;17.52;;
83184;SDS011;73080;48.768;11.528;2023-12-07T06:29:07;38.17;;;16.20;;
83184;SDS011;73080;48.768;11.528;2023-12-07T06:31:32;34.10;;;16.90;;
83184;SDS011;73080;48.768;11.528;2023-12-07T06:34:00;32.80;;;16.30;;
83184;SDS011;73080;48.768;11.528;2023-12-07T06:36:26;32.08;;;15.18;;
83184;SDS011;73080;48.768;11.528;2023-12-07T06:38:51;35.33;;;15.95;;
83184;SDS011;73080;48.768;11.528;2023-12-07T06:41:17;31.17;;;16.80;;
83184;SDS011;73080;48.768;11.528;2023-12-07T06:43:42;31.03;;;14.50;;
83184;SDS011;73080;48.768;11.528;2023-12-07T06:46:07;26.20;;;13.27;;
83184;SDS011;73080;48.768;11.528;2023-12-07T06:48:35;32.07;;;15.80;;
83184;SDS011;73080;48.768;11.528;2023-12-07T06:51:01;27.00;;;14.00;;
83184;SDS011;73080;48.768;11.528;2023-12-07T06:53:26;26.98;;;13.30;;
83184;SDS011;73080;48.768;11.528;2023-12-07T06:55:51;26.20;;;13.23;;
83184;SDS011;73080;48.768;11.528;2023-12-07T06:58:16;25.53;;;12.43;;
83184;SDS011;73080;48.768;11.528;2023-12-07T07:00:42;23.73;;;11.90;;
83184;SDS011;73080;48.768;11.528;2023-12-07T07:03:07;25.13;;;11.93;;
83184;SDS011;73080;48.768;11.528;2023-12-07T07:05:33;27.23;;;12.57;;
83184;SDS011;73080;48.768;11.528;2023-12-07T07:07:58;27.80;;;13.80;;
83184;SDS011;73080;48.768;11.528;2023-12-07T07:10:24;27.75;;;12.70;;
83184;SDS011;73080;48.768;11.528;2023-12-07T07:12:49;27.65;;;12.85;;
83184;SDS011;73080;48.768;11.528;2023-12-07T07:15:14;24.75;;;12.70;;
83184;SDS011;73080;48.768;11.528;2023-12-07T07:17:40;26.58;;;12.88;;
83184;SDS011;73080;48.768;11.528;2023-12-07T07:20:06;29.25;;;14.77;;
83184;SDS011;73080;48.768;11.528;2023-12-07T07:22:31;31.10;;;17.65;;
83184;SDS011;73080;48.768;11.528;2023-12-07T07:24:57;30.17;;;16.38;;
83184;SDS011;73080;48.768;11.528;2023-12-07T07:27:22;34.28;;;18.33;;
83184;SDS011;73080;48.768;11.528;2023-12-07T07:29:48;31.00;;;16.60;;
83184;SDS011;73080;48.768;11.528;2023-12-07T07:32:13;29.50;;;15.63;;
83184;SDS011;73080;48.768;11.528;2023-12-07T07:34:39;30.83;;;15.00;;
83184;SDS011;73080;48.768;11.528;2023-12-07T07:37:04;28.10;;;14.90;;
83184;SDS011;73080;48.768;11.528;2023-12-07T07:39:30;33.55;;;15.70;;
83184;SDS011;73080;48.768;11.528;2023-12-07T07:41:56;30.02;;;14.45;;
83184;SDS011;73080;48.768;11.528;2023-12-07T07:44:21;29.88;;;14.65;;
83184;SDS011;73080;48.768;11.528;2023-12-07T07:46:46;27.60;;;14.05;;
83184;SDS011;73080;48.768;11.528;2023-12-07T07:49:12;27.98;;;14.20;;
83184;SDS011;73080;48.768;11.528;2023-12-07T07:51:37;34.47;;;14.43;;
83184;SDS011;73080;48.768;11.528;2023-12-07T07:54:03;27.65;;;13.98;;
83184;SDS011;73080;48.768;11.528;2023-12-07T07:56:31;26.02;;;13.35;;
83184;SDS011;73080;48.768;11.528;2023-12-07T07:58:56;33.20;;;17.73;;
83184;SDS011;73080;48.768;11.528;2023-12-07T08:01:22;34.38;;;16.80;;
83184;SDS011;73080;48.768;11.528;2023-12-07T08:03:47;31.85;;;15.43;;
83184;SDS011;73080;48.768;11.528;2023-12-07T08:06:16;33.75;;;17.65;;
83184;SDS011;73080;48.768;11.528;2023-12-07T08:08:44;35.78;;;18.70;;
83184;SDS011;73080;48.768;11.528;2023-12-07T08:13:38;30.13;;;18.77;;
83184;SDS011;73080;48.768;11.528;2023-12-07T08:16:06;31.38;;;19.33;;
83184;SDS011;73080;48.768;11.528;2023-12-07T08:18:35;27.42;;;15.00;;
83184;SDS011;73080;48.768;11.528;2023-12-07T08:21:00;28.30;;;16.05;;
83184;SDS011;73080;48.768;11.528;2023-12-07T08:23:26;31.15;;;15.27;;
83184;SDS011;73080;48.768;11.528;2023-12-07T08:25:51;24.70;;;13.43;;
83184;SDS011;73080;48.768;11.528;2023-12-07T08:28:17;31.17;;;15.55;;
83184;SDS011;73080;48.768;11.528;2023-12-07T08:30:45;27.50;;;15.18;;
83184;SDS011;73080;48.768;11.528;2023-12-07T08:33:10;27.95;;;13.95;;
83184;SDS011;73080;48.768;11.528;2023-12-07T08:35:36;26.13;;;12.73;;
83184;SDS011;73080;48.768;11.528;2023-12-07T08:38:01;26.67;;;12.75;;
83184;SDS011;73080;48.768;11.528;2023-12-07T08:40:27;27.35;;;13.43;;
83184;SDS011;73080;48.768;11.528;2023-12-07T08:42:55;26.25;;;12.05;;
83184;SDS011;73080;48.768;11.528;2023-12-07T08:47:49;25.13;;;12.50;;
83184;SDS011;73080;48.768;11.528;2023-12-07T08:50:14;20.85;;;11.55;;
83184;SDS011;73080;48.768;11.528;2023-12-07T08:52:40;21.83;;;11.15;;
83184;SDS011;73080;48.768;11.528;2023-12-07T08:55:08;24.60;;;12.25;;
83184;SDS011;73080;48.768;11.528;2023-12-07T08:57:33;22.45;;;12.30;;
83184;SDS011;73080;48.768;11.528;2023-12-07T08:59:59;25.77;;;13.05;;
83184;SDS011;73080;48.768;11.528;2023-12-07T09:02:24;20.65;;;11.60;;
83184;SDS011;73080;48.768;11.528;2023-12-07T09:04:50;21.77;;;12.38;;
83184;SDS011;73080;48.768;11.528;2023-12-07T09:07:15;22.23;;;11.35;;
83184;SDS011;73080;48.768;11.528;2023-12-07T09:09:41;22.63;;;11.68;;
83184;SDS011;73080;48.768;11.528;2023-12-07T09:12:06;22.42;;;10.52;;
83184;SDS011;73080;48.768;11.528;2023-12-07T09:14:35;22.15;;;11.13;;
83184;SDS011;73080;48.768;11.528;2023-12-07T09:17:00;23.55;;;12.35;;
83184;SDS011;73080;48.768;11.528;2023-12-07T09:19:26;23.58;;;11.90;;
83184;SDS011;73080;48.768;11.528;2023-12-07T09:21:51;23.23;;;11.73;;
83184;SDS011;73080;48.768;11.528;2023-12-07T09:24:16;27.05;;;11.65;;
83184;SDS011;73080;48.768;11.528;2023-12-07T09:26:42;20.75;;;11.18;;
83184;SDS011;73080;48.768;11.528;2023-12-07T09:29:13;20.35;;;11.52;;
83184;SDS011;73080;48.768;11.528;2023-12-07T09:31:39;21.15;;;11.18;;
83184;SDS011;73080;48.768;11.528;2023-12-07T09:34:04;21.30;;;11.25;;
83184;SDS011;73080;48.768;11.528;2023-12-07T09:36:29;23.30;;;12.82;;
83184;SDS011;73080;48.768;11.528;2023-12-07T09:38:58;24.52;;;12.27;;
83184;SDS011;73080;48.768;11.528;2023-12-07T09:41:23;21.52;;;11.00;;
83184;SDS011;73080;48.768;11.528;2023-12-07T09:43:51;21.92;;;11.30;;
83184;SDS011;73080;48.768;11.528;2023-12-07T09:46:16;25.10;;;13.05;;
83184;SDS011;73080;48.768;11.528;2023-12-07T09:48:43;22.13;;;11.57;;
83184;SDS011;73080;48.768;11.528;2023-12-07T09:51:09;20.40;;;10.85;;
83184;SDS011;73080;48.768;11.528;2023-12-07T09:53:35;25.00;;;12.02;;
83184;SDS011;73080;48.768;11.528;2023-12-07T09:56:03;24.98;;;13.45;;
83184;SDS011;73080;48.768;11.528;2023-12-07T09:58:28;24.90;;;13.68;;
83184;SDS011;73080;48.768;11.528;2023-12-07T10:00:54;27.55;;;13.75;;
83184;SDS011;73080;48.768;11.528;2023-12-07T10:03:22;25.88;;;14.23;;
83184;SDS011;73080;48.768;11.528;2023-12-07T10:05:55;23.52;;;12.32;;
83184;SDS011;73080;48.768;11.528;2023-12-07T10:08:31;25.10;;;12.93;;
83184;SDS011;73080;48.768;11.528;2023-12-07T10:13:49;21.83;;;12.02;;
83184;SDS011;73080;48.768;11.528;2023-12-07T10:16:16;20.48;;;11.65;;
83184;SDS011;73080;48.768;11.528;2023-12-07T10:18:44;21.23;;;10.70;;
83184;SDS011;73080;48.768;11.528;2023-12-07T10:21:09;22.00;;;9.93;;
83184;SDS011;73080;48.768;11.528;2023-12-07T10:23:36;19.63;;;11.02;;
83184;SDS011;73080;48.768;11.528;2023-12-07T10:26:05;25.00;;;11.23;;
83184;SDS011;73080;48.768;11.528;2023-12-07T10:28:31;18.17;;;10.40;;
83184;SDS011;73080;48.768;11.528;2023-12-07T10:30:59;18.33;;;9.70;;
83184;SDS011;73080;48.768;11.528;2023-12-07T10:33:25;20.30;;;10.20;;
83184;SDS011;73080;48.768;11.528;2023-12-07T10:35:54;22.30;;;9.77;;
83184;SDS011;73080;48.768;11.528;2023-12-07T10:38:20;16.08;;;9.85;;
83184;SDS011;73080;48.768;11.528;2023-12-07T10:40:49;23.73;;;10.88;;
83184;SDS011;73080;48.768;11.528;2023-12-07T10:43:27;18.92;;;9.75;;
83184;SDS011;73080;48.768;11.528;2023-12-07T10:45:53;19.15;;;10.07;;
83184;SDS011;73080;48.768;11.528;2023-12-07T10:48:18;20.88;;;11.70;;
83184;SDS011;73080;48.768;11.528;2023-12-07T10:50:46;19.10;;;10.35;;
83184;SDS011;73080;48.768;11.528;2023-12-07T10:53:18;20.95;;;10.90;;
83184;SDS011;73080;48.768;11.528;2023-12-07T10:55:55;21.30;;;12.73;;
83184;SDS011;73080;48.768;11.528;2023-12-07T10:58:25;32.40;;;14.88;;
83184;SDS011;73080;48.768;11.528;2023-12-07T11:00:51;20.65;;;10.85;;
83184;SDS011;73080;48.768;11.528;2023-12-07T11:03:23;19.85;;;10.35;;
83184;SDS011;73080;48.768;11.528;2023-12-07T11:05:49;21.08;;;11.77;;
83184;SDS011;73080;48.768;11.528;2023-12-07T11:08:21;19.40;;;12.18;;
83184;SDS011;73080;48.768;11.528;2023-12-07T11:13:33;23.33;;;12.02;;
83184;SDS011;73080;48.768;11.528;2023-12-07T11:16:03;18.63;;;10.40;;
83184;SDS011;73080;48.768;11.528;2023-12-07T11:18:29;17.25;;;9.00;;
83184;SDS011;73080;48.768;11.528;2023-12-07T11:20:58;16.20;;;9.80;;
83184;SDS011;73080;48.768;11.528;2023-12-07T11:23:32;17.77;;;10.30;;
83184;SDS011;73080;48.768;11.528;2023-12-07T11:25:58;18.13;;;9.85;;
83184;SDS011;73080;48.768;11.528;2023-12-07T11:28:35;18.65;;;10.98;;
83184;SDS011;73080;48.768;11.528;2023-12-07T11:31:02;17.42;;;10.40;;
83184;SDS011;73080;48.768;11.528;2023-12-07T11:33:29;20.67;;;10.98;;
83184;SDS011;73080;48.768;11.528;2023-12-07T11:36:10;19.13;;;10.52;;
83184;SDS011;73080;48.768;11.528;2023-12-07T11:41:28;19.25;;;10.07;;
83184;SDS011;73080;48.768;11.528;2023-12-07T11:46:23;18.85;;;10.20;;
83184;SDS011;73080;48.768;11.528;2023-12-07T11:48:48;18.52;;;10.15;;
83184;SDS011;73080;48.768;11.528;2023-12-07T11:51:15;19.92;;;12.25;;
83184;SDS011;73080;48.768;11.528;2023-12-07T11:53:41;17.90;;;10.60;;
83184;SDS011;73080;48.768;11.528;2023-12-07T11:56:07;19.75;;;10.93;;
83184;SDS011;73080;48.768;11.528;2023-12-07T11:58:34;21.90;;;11.68;;
83184;SDS011;73080;48.768;11.528;2023-12-07T12:01:01;17.20;;;10.73;;
83184;SDS011;73080;48.768;11.528;2023-12-07T12:03:27;18.80;;;10.32;;
83184;SDS011;73080;48.768;11.528;2023-12-07T12:05:53;19.27;;;10.55;;
83184;SDS011;73080;48.768;11.528;2023-12-07T12:08:18;20.50;;;10.90;;
83184;SDS011;73080;48.768;11.528;2023-12-07T12:10:45;21.02;;;10.65;;
83184;SDS011;73080;48.768;11.528;2023-12-07T12:13:11;16.05;;;10.10;;
83184;SDS011;73080;48.768;11.528;2023-12-07T12:15:37;19.02;;;10.00;;
83184;SDS011;73080;48.768;11.528;2023-12-07T12:18:04;19.38;;;10.05;;
83184;SDS011;73080;48.768;11.528;2023-12-07T12:20:30;21.00;;;10.23;;
83184;SDS011;73080;48.768;11.528;2023-12-07T12:22:55;19.63;;;11.45;;
83184;SDS011;73080;48.768;11.528;2023-12-07T12:25:30;22.13;;;11.82;;
83184;SDS011;73080;48.768;11.528;2023-12-07T12:27:57;21.30;;;9.93;;
83184;SDS011;73080;48.768;11.528;2023-12-07T12:30:26;18.00;;;9.20;;
83184;SDS011;73080;48.768;11.528;2023-12-07T12:32:52;16.75;;;9.35;;
83184;SDS011;73080;48.768;11.528;2023-12-07T12:35:18;24.23;;;11.88;;
83184;SDS011;73080;48.768;11.528;2023-12-07T12:37:46;18.55;;;10.57;;
83184;SDS011;73080;48.768;11.528;2023-12-07T12:40:13;17.20;;;10.57;;
83184;SDS011;73080;48.768;11.528;2023-12-07T12:42:40;13.68;;;7.32;;
83184;SDS011;73080;48.768;11.528;2023-12-07T12:45:07;18.73;;;12.07;;
83184;SDS011;73080;48.768;11.528;2023-12-07T12:47:34;19.23;;;11.02;;
83184;SDS011;73080;48.768;11.528;2023-12-07T12:49:59;18.50;;;9.45;;
83184;SDS011;73080;48.768;11.528;2023-12-07T12:52:25;18.27;;;9.70;;
83184;SDS011;73080;48.768;11.528;2023-12-07T12:54:50;20.45;;;10.77;;
83184;SDS011;73080;48.768;11.528;2023-12-07T12:57:16;23.27;;;12.23;;
83184;SDS011;73080;48.768;11.528;2023-12-07T12:59:42;18.52;;;9.85;;
83184;SDS011;73080;48.768;11.528;2023-12-07T13:02:09;19.60;;;9.90;;
83184;SDS011;73080;48.768;11.528;2023-12-07T13:04:35;22.73;;;10.55;;
83184;SDS011;73080;48.768;11.528;2023-12-07T13:07:00;19.50;;;10.60;;
83184;SDS011;73080;48.768;11.528;2023-12-07T13:09:26;21.63;;;11.10;;
83184;SDS011;73080;48.768;11.528;2023-12-07T13:11:54;21.17;;;11.13;;
83184;SDS011;73080;48.768;11.528;2023-12-07T13:14:20;19.80;;;10.32;;
83184;SDS011;73080;48.768;11.528;2023-12-07T13:16:45;18.27;;;9.70;;
83184;SDS011;73080;48.768;11.528;2023-12-07T13:19:13;17.15;;;9.60;;
83184;SDS011;73080;48.768;11.528;2023-12-07T13:21:39;12.43;;;6.88;;
83184;SDS011;73080;48.768;11.528;2023-12-07T13:24:04;19.42;;;7.10;;
83184;SDS011;73080;48.768;11.528;2023-12-07T13:26:36;17.45;;;8.77;;
83184;SDS011;73080;48.768;11.528;2023-12-07T13:29:02;13.23;;;7.57;;
83184;SDS011;73080;48.768;11.528;2023-12-07T13:31:27;21.92;;;8.85;;
83184;SDS011;73080;48.768;11.528;2023-12-07T13:33:52;12.45;;;6.10;;
83184;SDS011;73080;48.768;11.528;2023-12-07T13:36:18;18.95;;;10.80;;
83184;SDS011;73080;48.768;11.528;2023-12-07T13:38:43;20.20;;;10.03;;
83184;SDS011;73080;48.768;11.528;2023-12-07T13:41:12;17.42;;;7.80;;
83184;SDS011;73080;48.768;11.528;2023-12-07T13:43:37;11.30;;;6.47;;
83184;SDS011;73080;48.768;11.528;2023-12-07T13:46:03;15.07;;;8.40;;
83184;SDS011;73080;48.768;11.528;2023-12-07T13:48:28;23.73;;;12.10;;
83184;SDS011;73080;48.768;11.528;2023-12-07T13:50:54;22.75;;;12.65;;
83184;SDS011;73080;48.768;11.528;2023-12-07T13:53:19;19.92;;;11.18;;
83184;SDS011;73080;48.768;11.528;2023-12-07T13:55:45;20.52;;;11.18;;
83184;SDS011;73080;48.768;11.528;2023-12-07T13:58:10;19.77;;;10.60;;
83184;SDS011;73080;48.768;11.528;2023-12-07T14:00:45;20.08;;;9.93;;
83184;SDS011;73080;48.768;11.528;2023-12-07T14:03:11;20.80;;;9.80;;
83184;SDS011;73080;48.768;11.528;2023-12-07T14:05:36;22.73;;;10.85;;
83184;SDS011;73080;48.768;11.528;2023-12-07T14:08:03;16.65;;;9.20;;
83184;SDS011;73080;48.768;11.528;2023-12-07T14:10:28;15.18;;;7.82;;
83184;SDS011;73080;48.768;11.528;2023-12-07T14:12:54;14.55;;;7.25;;
83184;SDS011;73080;48.768;11.528;2023-12-07T14:15:19;16.05;;;8.00;;
83184;SDS011;73080;48.768;11.528;2023-12-07T14:17:47;15.45;;;8.10;;
83184;SDS011;73080;48.768;11.528;2023-12-07T14:20:13;15.45;;;8.40;;
83184;SDS011;73080;48.768;11.528;2023-12-07T14:22:38;20.02;;;11.13;;
83184;SDS011;73080;48.768;11.528;2023-12-07T14:25:04;17.27;;;9.25;;
83184;SDS011;73080;48.768;11.528;2023-12-07T14:27:30;14.52;;;8.10;;
83184;SDS011;73080;48.768;11.528;2023-12-07T14:29:55;16.47;;;9.73;;
83184;SDS011;73080;48.768;11.528;2023-12-07T14:32:20;16.83;;;6.97;;
83184;SDS011;73080;48.768;11.528;2023-12-07T14:34:46;15.05;;;6.57;;